普天間飛行場の過去48時間の天気

普天間飛行場 (Futema)

現在時刻: 9/19 07:35 JST (9/18 22:35 UTC) 以下の時間は現地時間です。

過去48時間のMETAR気象情報
時間 風向 風速(m/s) 視程 気温(℃) 湿度(%) 気圧(hPa) 天気現象
19 05:56 北西 3 10km以上 25 90 1012.1
19 04:56 北西 4 10km以上 26.1 85 1011.7
19 03:56 北西 4 10km以上 25.6 90 1011.9
19 02:56 北北西 3 10km以上 26.1 88 1012.2
19 01:56 北西 5 10km以上 25.6 87 1012.5
19 00:56 北西 5 10km以上 26.1 85 1012.9
18 23:56 北北西 4 10km以上 25.6 87 1013
18 20:56 北北西 3 10km以上 26.1 82 1013.3
18 18:56 北北西 3 10km以上 27.2 77 1012
18 17:56 北西 5 10km以上 27.8 77 1011.5
18 16:56 北北西 4 10km以上 28.9 74 1011.1
18 15:56 北北西 5 10km以上 28.9 77 1011
18 14:56 北北西 5 10km以上 29.4 75 1010.9
18 13:56 北西 6 10km以上 29.4 80 1011.4
18 12:56 北北西 4 10km以上 29.4 82 1011.6
18 11:56 北北西 4 10km以上 29.4 82 1012.2
18 10:56 北北西 4 10km以上 28.9 85 1012.6
18 08:56 北北西 3 10km以上 27.8 88 1012.8
18 05:56 静穏 0 10km以上 26.7 90 1011.3
18 04:56 静穏 0 10km以上 26.7 94 1011.2
18 03:56 静穏 0 10km以上 26.7 94 1011
18 02:56 静穏 0 10km以上 25.6 100 1011.7
18 01:56 静穏 0 10km以上 26.7 94 1011.6
17 22:56 北北東 2 10km以上 26.7 94 1011.9
17 20:56 静穏 0 10km以上 26.7 94 1011.6
17 19:56 3 10km以上 26.7 94 1009.9
17 18:56 北北西 4 10km以上 27.2 94 1009.7
17 17:56 西北西 4 10km以上 27.8 90 1009.3
17 16:56 西北西 4 10km以上 28.3 94 1009.1
17 15:56 西北西 4 10km以上 29.4 83 1009
17 14:56 北西 4 10km以上 30 83 1009.1
17 13:56 北北西 5 10km以上 30 80 1009.3
17 11:56 北西 5 10km以上 30 85 1009.5
17 10:56 西 3 10km以上 29.4 85 1009.7
17 09:56 北西 2 10km以上 28.3 94 1009.7 周辺でしゅう雨
17 08:32 西北西 4 8000m 28 89 1009.6 弱いしゅう雨 もや
17 07:56 不定 2 10km以上 27.8 94 1009.2 周辺でしゅう雨
ROTM 182056Z 32006KT 9999 FEW030 SCT100 25/23 A2993 RMK SLP121 T02500233 55000
ROTM 181956Z 31007KT 9999 FEW030 SCT100 26/23 A2992 RMK SLP117 T02610233
ROTM 181856Z 31007KT 9999 FEW025 SCT100 26/24 A2993 RMK SLP119 T02560239
ROTM 181756Z 33006KT 9999 FEW030 SCT100 26/24 A2994 RMK SLP122 T02610239 10261 20256 58007
ROTM 181656Z 32009KT 9999 FEW030 SCT100 26/23 A2995 RMK SLP125 T02560233
ROTM 181556Z COR 32010KT 9999 FEW035 SCT100 26/23 A2996 RMK SLP129 T02610233
ROTM 181456Z COR 34008KT 9999 FEW035 SCT100 26/23 A2996 RMK SLP130 T02560233 403000256 58003
ROTM 181156Z 33006KT 9999 SCT034 BKN070 26/23 A2997 RMK SLP133 T02610228 10289 20261 52017
ROTM 180956Z 33006KT 9999 SCT043 BKN100 27/23 A2994 RMK SLP120 T02720228
ROTM 180856Z 32009KT 9999 FEW035 SCT100 28/23 A2992 RMK SLP115 T02780233 53003
ROTM 180756Z 34007KT 9999 FEW030 SCT100 29/24 A2991 RMK SLP111 T02890239
ROTM 180656Z 33010KT 9999 FEW030 SCT100 29/24 A2990 RMK SLP110 T02890244
ROTM 180556Z 33009KT 9999 FEW035 SCT110 29/24 A2990 RMK SLP109 T02940244 10294 20289 57010
ROTM 180456Z 32011KT 9999 FEW030 SCT110 29/26 A2991 RMK SLP114 T02940256
ROTM 180356Z 34008KT 9999 FEW030 SCT110 29/26 A2992 RMK SLP116 T02940261
ROTM 180256Z 34007KT 9999 FEW035 SCT065 29/26 A2994 RMK SLP122 T02940261 58007
ROTM 180156Z COR 33008KT 9999 FEW035 SCT065 29/26 A2995 RMK SLP126 T02890261
ROTM 172356Z 33006KT 9999 FEW030 SCT060 28/26 A2995 RMK SLP128 T02780256 10267 20278 53012
ROTM 172056Z 00000KT 9999 SCT060 26/25 A2991 RMK SLP113 T02670250 55002
ROTM 171956Z 00000KT 9999 SCT060 27/26 A2991 RMK SLP112 T02670256
ROTM 171856Z 00000KT 9999 SCT060 27/26 A2991 RMK SLP110 T02670256
ROTM 171756Z 00000KT 9999 SCT060 26/26 A2992 RMK SLP117 T02560256 10267 20256 54000
ROTM 171656Z 00000KT 9999 SCT060 27/26 A2992 RMK SLP116 T02670256
ROTM 171356Z 02003KT 9999 SCT006 27/26 A2993 RMK SLP119 T02670256
ROTM 171156Z 00000KT 9999 FEW015 BKN060 27/26 A2992 RMK SLP116 70011 T02670256 10294 20267 52027
ROTM 171056Z 01006KT 9999 FEW015 BKN070 27/26 RMK SLP099 T02670256
ROTM 170956Z 34008KT 9999 SCT015 BKN070 BKN140 27/26 A2989 RMK SLP097 T02720261
ROTM 170856Z 29008KT 9999 FEW015 SCT070 BKN140 28/26 A2988 RMK SLP093 T02780261 55002
ROTM 170756Z 29008KT 9999 FEW015 SCT070 BKN140 28/27 A2986 RMK SLP091 T02830272
ROTM 170656Z 29008KT 9999 FEW015 SCT070 BKN140 29/26 A2985 RMK SLP090 T02940262
ROTM 170556Z 31007KT 9999 FEW015 SCT070 BKN120 30/27 A2985 RMK SLP091 T03000267 10300 20283 58012
ROTM 170456Z 33009KT 9999 FEW015 SCT070 BKN120 30/26 A2987 RMK SLP093 T03000261
ROTM 170256Z 31009KT 9999 FEW015 SCT070 BKN120 30/27 A2989 RMK SLP095 T03000272 58007
ROTM 170156Z 28005KT 9999 FEW015 SCT065 BKN120 29/27 A2991 RMK CB DSNT NW MOVG NE SLP097 L5 CANC T1 CANC T02940267
ROTM 170056Z 31004KT 9999 VCSH SCT015 SCT065 BKN120 28/27 A2991 RMK CB DSNT W MOVG NE SLP097 T02830272
ROTM 162332Z 29008KT 8000 -SHRA BR BKN015 BKN120 28/26 A2989 RMK SHRAB32 SLP096 T1 SET
ROTM 162256Z VRB04KT 9999 VCSH SCT030 BKN065 BKN120 28/27 A2988 RMK SLP092 T02780267